Time;durP1;ratioP1;P1;durP2;ratioP2;P2;SDS_P1;SDS_P2;PMS_P1;PMS_P2;Temp;Humidity;BMP_temperature;BMP_pressure;BME280_temperature;BME280_humidity;BME280_pressure;Samples;Min_cycle;Max_cycle;Signal;HPM_P1;HPM_P2
2024/03/24 00:00:26;;;;;;;8.18;1.20;;;;;;;3.61;100.00;99848.47;4899965;29;20256;-79
2024/03/24 00:02:53;;;;;;;0.95;0.70;;;;;;;3.66;100.00;99850.59;4903359;29;20193;-78
2024/03/24 00:05:21;;;;;;;5.20;1.55;;;;;;;3.60;100.00;99849.47;4890347;29;20214;-80
2024/03/24 00:07:49;;;;;;;2.90;0.73;;;;;;;3.49;100.00;99855.25;4887247;29;20194;-79
2024/03/24 00:10:19;;;;;;;1.40;0.73;;;;;;;3.47;100.00;99847.44;4885343;29;20254;-78
2024/03/24 00:12:47;;;;;;;3.10;1.80;;;;;;;3.52;100.00;99848.72;4870250;29;20190;-79
2024/03/24 00:15:19;;;;;;;1.45;1.05;;;;;;;3.51;100.00;99842.56;4889705;29;20221;-78
2024/03/24 00:17:46;;;;;;;1.40;1.00;;;;;;;3.59;100.00;99837.09;4899889;29;20193;-79
2024/03/24 00:20:16;;;;;;;1.63;1.33;;;;;;;3.68;100.00;99827.97;4899705;29;20190;-79
2024/03/24 00:22:43;;;;;;;1.20;0.80;;;;;;;3.88;100.00;99829.09;4875737;29;20182;-80
2024/03/24 00:25:11;;;;;;;1.00;0.75;;;;;;;3.94;100.00;99825.69;4864003;29;20214;-80
2024/03/24 00:27:41;;;;;;;4.60;1.00;;;;;;;3.98;100.00;99826.13;4868832;29;20649;-79
2024/03/24 00:30:11;;;;;;;0.90;0.80;;;;;;;3.95;100.00;99818.50;4867805;29;20213;-79
2024/03/24 00:32:40;;;;;;;1.60;0.98;;;;;;;4.03;100.00;99822.91;4870923;29;20217;-77
2024/03/24 00:35:07;;;;;;;3.15;1.30;;;;;;;4.09;100.00;99819.50;4902127;29;20261;-78
2024/03/24 00:37:36;;;;;;;1.80;1.45;;;;;;;4.06;100.00;99812.69;4887117;29;20194;-79
2024/03/24 00:40:09;;;;;;;2.55;1.50;;;;;;;4.08;100.00;99809.78;4902875;29;20178;-78
2024/03/24 00:42:37;;;;;;;0.95;0.85;;;;;;;4.15;100.00;99814.22;4897988;29;20267;-79
2024/03/24 00:45:08;;;;;;;0.80;0.55;;;;;;;4.17;100.00;99812.19;4899174;29;20220;-79
2024/03/24 00:47:37;;;;;;;1.25;1.15;;;;;;;4.27;100.00;99810.03;4898151;29;20196;-83
2024/03/24 00:50:33;;;;;;;4.30;2.35;;;;;;;4.32;100.00;99807.63;4912994;29;20202;-81
2024/03/24 00:53:04;;;;;;;2.00;1.33;;;;;;;4.45;100.00;99808.81;4890387;29;20261;-78
2024/03/24 00:55:31;;;;;;;2.00;1.88;;;;;;;4.51;100.00;99808.88;4889634;29;20250;-78
2024/03/24 00:57:59;;;;;;;1.98;0.98;;;;;;;4.46;100.00;99797.88;4888526;29;20195;-79
2024/03/24 01:00:28;;;;;;;1.55;1.45;;;;;;;4.48;100.00;99795.88;4888938;29;20664;-80
2024/03/24 01:02:57;;;;;;;1.10;0.80;;;;;;;4.51;100.00;99798.16;4888353;29;20178;-79
2024/03/24 01:06:04;;;;;;;1.80;0.70;;;;;;;4.39;100.00;99788.97;4889922;29;20327;-78
2024/03/24 01:08:51;;;;;;;0.80;0.60;;;;;;;4.22;100.00;99782.16;4879158;29;20234;-79
2024/03/24 01:11:19;;;;;;;1.25;1.15;;;;;;;4.11;100.00;99775.47;4889073;29;20218;-79
2024/03/24 01:13:47;;;;;;;1.05;0.93;;;;;;;4.10;100.00;99778.31;4888401;29;20221;-78
2024/03/24 01:16:16;;;;;;;1.05;0.95;;;;;;;4.00;100.00;99767.06;4888471;29;20182;-79
2024/03/24 01:18:49;;;;;;;0.90;0.77;;;;;;;3.94;100.00;99774.84;4893564;29;20183;-79
2024/03/24 01:21:23;;;;;;;1.27;0.85;;;;;;;3.89;100.00;99763.84;4893150;29;20247;-78
2024/03/24 01:23:51;;;;;;;1.10;0.80;;;;;;;3.91;100.00;99763.69;4898711;29;20224;-79
2024/03/24 01:26:21;;;;;;;1.65;1.17;;;;;;;3.84;100.00;99760.06;4897493;29;20620;-79
2024/03/24 01:28:50;;;;;;;1.00;0.70;;;;;;;3.82;100.00;99760.28;4900894;29;20182;-79
2024/03/24 01:31:18;;;;;;;1.45;0.90;;;;;;;3.76;100.00;99755.66;4902541;29;20278;-78
2024/03/24 01:33:47;;;;;;;1.00;0.88;;;;;;;3.73;100.00;99756.03;4901133;29;20245;-78
2024/03/24 01:36:15;;;;;;;3.88;1.35;;;;;;;3.67;100.00;99748.75;4899382;29;20353;-78
2024/03/24 01:45:03;;;;;;;0.88;0.70;;;;;;;3.56;100.00;99748.38;4883950;29;20294;-78
2024/03/24 01:47:35;;;;;;;0.90;0.77;;;;;;;3.54;100.00;99740.53;4890158;29;20278;-79
2024/03/24 01:50:04;;;;;;;1.48;1.08;;;;;;;3.43;100.00;99739.19;4887360;29;20205;-79
2024/03/24 01:52:32;;;;;;;3.13;2.92;;;;;;;3.32;100.00;99736.94;4888820;29;20194;-79
2024/03/24 01:55:01;;;;;;;0.90;0.63;;;;;;;3.38;100.00;99725.53;4890134;29;20233;-78
2024/03/24 01:57:28;;;;;;;1.20;0.95;;;;;;;3.44;100.00;99729.28;4872039;29;20214;-79
2024/03/24 01:59:57;;;;;;;1.17;0.65;;;;;;;3.33;100.00;99721.72;4887127;29;20527;-79
2024/03/24 02:02:25;;;;;;;3.45;1.50;;;;;;;3.27;100.00;99725.13;4888093;29;20552;-77
2024/03/24 02:04:58;;;;;;;1.70;0.90;;;;;;;3.26;100.00;99716.28;4888882;29;20584;-78
2024/03/24 02:07:25;;;;;;;0.95;0.60;;;;;;;3.23;100.00;99721.19;4898954;29;20178;-79
2024/03/24 02:09:55;;;;;;;1.80;1.00;;;;;;;3.32;100.00;99714.72;4922198;29;20195;-76
2024/03/24 02:12:22;;;;;;;1.15;1.05;;;;;;;3.30;100.00;99716.72;4905742;29;20249;-77
2024/03/24 02:14:51;;;;;;;1.15;1.05;;;;;;;3.33;100.00;99717.22;4907033;29;20202;-78
2024/03/24 02:17:19;;;;;;;2.20;1.75;;;;;;;3.28;100.00;99716.94;4907039;29;20181;-77
2024/03/24 02:19:47;;;;;;;2.65;1.48;;;;;;;3.26;100.00;99708.25;4888294;29;20191;-77
2024/03/24 02:22:20;;;;;;;2.25;1.77;;;;;;;3.47;100.00;99704.84;4888616;29;20193;-77
2024/03/24 02:24:49;;;;;;;1.10;0.75;;;;;;;3.70;100.00;99696.72;4887349;29;20274;-77
2024/03/24 02:27:17;;;;;;;1.30;0.90;;;;;;;3.74;100.00;99698.81;4888531;29;20167;-78
2024/03/24 02:29:46;;;;;;;1.00;0.80;;;;;;;3.66;100.00;99701.59;4872729;29;20198;-77
2024/03/24 02:32:13;;;;;;;2.17;1.80;;;;;;;3.56;100.00;99697.56;4897119;29;20198;-78
2024/03/24 02:34:42;;;;;;;1.27;1.10;;;;;;;3.38;100.00;99703.28;4887502;29;20221;-78
2024/03/24 02:37:09;;;;;;;1.10;0.65;;;;;;;3.43;100.00;99691.03;4884872;29;20408;-78
2024/03/24 02:39:41;;;;;;;0.80;0.60;;;;;;;3.29;100.00;99689.16;4886418;29;20179;-79
2024/03/24 02:42:09;;;;;;;0.93;0.75;;;;;;;3.29;100.00;99689.16;4885513;29;20260;-79
2024/03/24 02:44:40;;;;;;;1.35;1.20;;;;;;;3.26;100.00;99689.53;4885642;29;20225;-79
2024/03/24 02:47:11;;;;;;;0.90;0.70;;;;;;;3.18;100.00;99684.31;4885208;29;20644;-79
2024/03/24 02:49:39;;;;;;;0.80;0.60;;;;;;;3.12;100.00;99692.22;4885208;29;20190;-80
2024/03/24 02:52:07;;;;;;;0.88;0.63;;;;;;;3.12;100.00;99687.69;4885498;29;20182;-79
2024/03/24 02:54:38;;;;;;;1.48;0.85;;;;;;;3.18;100.00;99680.78;4885681;29;20248;-78
2024/03/24 02:57:05;;;;;;;1.27;1.02;;;;;;;3.04;100.00;99685.97;4884655;29;20186;-79
2024/03/24 02:59:36;;;;;;;1.15;1.05;;;;;;;3.11;100.00;99682.53;4891894;29;20238;-77
2024/03/24 03:02:03;;;;;;;1.15;1.05;;;;;;;3.11;100.00;99669.16;4898661;29;20197;-78
2024/03/24 03:04:32;;;;;;;1.27;1.17;;;;;;;3.08;100.00;99675.72;4898814;29;20221;-77
2024/03/24 03:07:00;;;;;;;1.85;1.67;;;;;;;3.04;100.00;99674.44;4899434;29;20214;-77
2024/03/24 03:09:29;;;;;;;2.65;0.95;;;;;;;2.97;100.00;99670.81;4898330;29;20250;-79
2024/03/24 03:11:57;;;;;;;1.27;1.15;;;;;;;3.03;100.00;99660.25;4885421;29;20671;-80
2024/03/24 03:14:25;;;;;;;3.42;3.13;;;;;;;3.12;100.00;99663.66;4885244;29;20217;-79
2024/03/24 03:16:54;;;;;;;1.85;1.75;;;;;;;3.14;100.00;99666.16;4870083;29;20563;-79
2024/03/24 03:19:23;;;;;;;1.35;1.23;;;;;;;3.09;100.00;99661.34;4869929;29;20208;-79
2024/03/24 03:21:50;;;;;;;1.52;1.30;;;;;;;3.09;100.00;99660.53;4870542;29;20202;-79
2024/03/24 03:24:19;;;;;;;3.67;1.80;;;;;;;3.13;100.00;99656.47;4886249;29;20580;-79
2024/03/24 03:26:46;;;;;;;1.42;1.08;;;;;;;3.22;100.00;99658.84;4895299;29;20199;-78
2024/03/24 03:29:14;;;;;;;1.42;0.93;;;;;;;3.19;100.00;99653.06;4896965;29;20182;-78
2024/03/24 03:31:41;;;;;;;1.60;1.25;;;;;;;3.17;100.00;99647.06;4898488;29;20229;-78
2024/03/24 03:34:12;;;;;;;1.02;0.90;;;;;;;3.18;100.00;99648.72;4900178;29;20241;-78
2024/03/24 03:36:42;;;;;;;4.00;1.27;;;;;;;3.21;100.00;99641.16;4898801;29;20210;-78
2024/03/24 03:39:11;;;;;;;1.00;0.80;;;;;;;3.18;100.00;99632.69;4897711;29;20197;-79
2024/03/24 03:41:39;;;;;;;1.55;1.45;;;;;;;3.26;100.00;99636.06;4874441;29;20183;-79
2024/03/24 03:51:17;;;;;;;1.98;1.63;;;;;;;3.33;100.00;99630.81;4882186;29;20264;-79
2024/03/24 03:53:45;;;;;;;2.75;1.55;;;;;;;3.34;100.00;99633.28;4883487;29;20281;-79
2024/03/24 03:56:13;;;;;;;1.63;1.42;;;;;;;3.30;100.00;99631.19;4867772;29;20194;-79
2024/03/24 03:58:40;;;;;;;2.08;1.75;;;;;;;3.32;100.00;99627.31;4883467;29;20447;-78
2024/03/24 04:01:08;;;;;;;1.75;1.02;;;;;;;3.08;100.00;99634.81;4884754;29;20170;-79
2024/03/24 04:03:36;;;;;;;1.05;0.93;;;;;;;2.90;100.00;99622.66;4885462;29;20272;-79
2024/03/24 04:06:05;;;;;;;1.13;0.88;;;;;;;2.83;100.00;99632.41;4895945;29;20273;-78
2024/03/24 04:08:33;;;;;;;1.45;1.25;;;;;;;2.77;100.00;99625.09;4898411;29;20190;-78
2024/03/24 04:11:01;;;;;;;1.65;1.40;;;;;;;2.74;100.00;99625.47;4897939;29;20198;-77
2024/03/24 04:13:29;;;;;;;2.75;1.58;;;;;;;2.68;100.00;99623.53;4897904;29;20217;-77
2024/03/24 04:15:57;;;;;;;1.10;0.93;;;;;;;2.75;100.00;99619.13;4897618;29;20178;-79
2024/03/24 04:18:25;;;;;;;1.20;1.10;;;;;;;2.76;100.00;99620.75;4893245;29;20242;-79
2024/03/24 04:24:52;;;;;;;0.98;0.88;;;;;;;2.83;100.00;99618.19;4917673;29;20273;-78
2024/03/24 04:35:17;;;;;;;0.90;0.70;;;;;;;3.06;100.00;99601.06;4896837;29;20233;-77
2024/03/24 04:38:26;;;;;;;1.40;1.30;;;;;;;3.03;100.00;99598.78;4891840;29;20246;-78
2024/03/24 04:50:05;;;;;;;7.88;2.85;;;;;;;2.59;100.00;99595.25;4862525;29;20203;-79
2024/03/24 04:56:31;;;;;;;2.95;0.98;;;;;;;2.78;100.00;99605.41;4807705;29;20208;-79
2024/03/24 05:03:17;;;;;;;1.45;0.98;;;;;;;3.06;100.00;99603.72;4796177;29;20208;-78
2024/03/24 05:06:22;;;;;;;1.92;1.38;;;;;;;3.05;100.00;99596.72;4777056;29;20202;-79
2024/03/24 05:09:36;;;;;;;1.55;1.13;;;;;;;3.20;100.00;99599.38;4808376;29;20247;-78
2024/03/24 05:12:47;;;;;;;1.30;0.90;;;;;;;3.20;100.00;99598.56;4794485;29;20225;-79
2024/03/24 05:30:25;;;;;;;1.35;1.15;;;;;;;3.18;100.00;99600.59;4874357;29;20305;-78
2024/03/24 05:37:09;;;;;;;3.53;2.55;;;;;;;3.26;100.00;99593.31;4847864;29;20282;-78
2024/03/24 05:40:13;;;;;;;1.05;0.93;;;;;;;3.57;100.00;99595.75;4879573;29;20214;-78
2024/03/24 05:43:06;;;;;;;2.03;1.10;;;;;;;3.60;100.00;99590.00;4863633;29;20215;-78
2024/03/24 05:46:50;;;;;;;1.55;1.20;;;;;;;3.80;100.00;99587.53;4874016;29;20218;-79
2024/03/24 05:49:53;;;;;;;0.90;0.80;;;;;;;3.84;100.00;99588.81;4883801;29;20215;-78
2024/03/24 05:56:14;;;;;;;2.15;1.65;;;;;;;3.94;100.00;99578.63;4882314;29;20600;-78
2024/03/24 06:00:02;;;;;;;1.50;1.40;;;;;;;3.92;100.00;99578.81;4894845;29;20187;-78
2024/03/24 06:07:50;;;;;;;4.93;2.70;;;;;;;4.23;100.00;99575.81;4895430;29;20209;-78
2024/03/24 06:11:18;;;;;;;2.00;1.42;;;;;;;4.20;100.00;99583.41;4891688;29;20710;-78
2024/03/24 06:14:50;;;;;;;0.80;0.60;;;;;;;4.26;100.00;99577.28;4868156;29;20242;-79
2024/03/24 06:18:33;;;;;;;1.10;0.70;;;;;;;4.23;100.00;99580.31;4890909;29;20248;-77
2024/03/24 06:25:16;;;;;;;1.27;1.17;;;;;;;4.86;100.00;99579.34;4912055;29;20313;-79
2024/03/24 06:33:07;;;;;;;2.85;1.35;;;;;;;5.31;98.80;99572.56;4905192;29;20328;-78
2024/03/24 06:36:17;;;;;;;3.75;1.67;;;;;;;4.92;98.07;99565.16;4906824;29;20212;-79
2024/03/24 06:40:13;;;;;;;3.78;1.10;;;;;;;5.13;98.48;99565.03;4906802;29;20276;-79
2024/03/24 06:42:59;;;;;;;1.52;1.23;;;;;;;5.20;97.54;99568.59;4899535;29;20555;-78
2024/03/24 06:45:36;;;;;;;1.52;1.10;;;;;;;5.20;98.02;99560.53;4877118;29;20193;-80
2024/03/24 06:48:59;;;;;;;1.77;1.25;;;;;;;5.33;96.41;99565.13;4891399;29;20194;-79
2024/03/24 06:51:57;;;;;;;1.27;0.90;;;;;;;5.45;96.39;99568.91;4907457;29;20221;-79
2024/03/24 06:54:37;;;;;;;1.65;1.05;;;;;;;5.56;95.55;99567.50;4889312;29;20217;-79
2024/03/24 06:57:27;;;;;;;1.95;1.25;;;;;;;5.42;95.53;99565.81;4904961;29;20221;-79
2024/03/24 06:59:56;;;;;;;3.00;2.60;;;;;;;5.23;95.36;99572.72;4890268;29;20178;-79
2024/03/24 07:02:23;;;;;;;1.90;1.25;;;;;;;5.41;96.63;99564.97;4893221;29;20287;-80
2024/03/24 07:04:52;;;;;;;1.92;1.77;;;;;;;5.49;95.70;99562.09;4871609;29;20228;-79
2024/03/24 07:07:20;;;;;;;1.35;1.25;;;;;;;5.59;95.36;99559.03;4891449;29;20638;-79
2024/03/24 07:09:48;;;;;;;1.40;1.30;;;;;;;5.80;93.70;99558.88;4896929;29;20187;-78
2024/03/24 07:12:16;;;;;;;2.25;1.25;;;;;;;6.05;92.65;99559.16;4914211;29;20209;-77
2024/03/24 07:14:44;;;;;;;1.30;0.90;;;;;;;5.93;91.60;99560.78;4898546;29;20221;-79
2024/03/24 07:17:11;;;;;;;1.50;1.00;;;;;;;6.19;90.72;99557.31;4898679;29;20178;-80
2024/03/24 07:19:39;;;;;;;1.15;0.70;;;;;;;6.54;90.26;99562.25;4894364;29;20720;-78
2024/03/24 07:22:08;;;;;;;2.45;1.33;;;;;;;7.02;88.38;99551.16;4870578;29;20190;-78
2024/03/24 07:24:37;;;;;;;1.13;1.02;;;;;;;7.45;84.86;99551.44;4887587;29;20249;-77
2024/03/24 07:27:06;;;;;;;0.93;0.73;;;;;;;7.28;82.32;99551.09;4887332;29;20349;-78
2024/03/24 07:29:34;;;;;;;1.55;1.35;;;;;;;7.28;83.46;99552.94;4905455;29;20190;-76
2024/03/24 07:32:02;;;;;;;0.93;0.60;;;;;;;7.34;83.08;99552.94;4903281;29;20234;-77
2024/03/24 07:34:30;;;;;;;1.98;1.40;;;;;;;7.48;83.37;99553.69;4898732;29;20612;-79
2024/03/24 07:36:57;;;;;;;2.47;1.80;;;;;;;7.71;81.18;99543.22;4894154;29;20458;-79
2024/03/24 07:39:28;;;;;;;1.42;0.90;;;;;;;7.84;79.38;99558.47;4897495;29;20190;-79
2024/03/24 07:41:56;;;;;;;1.35;0.82;;;;;;;7.66;80.99;99544.91;4882400;29;20209;-79
2024/03/24 07:44:24;;;;;;;1.88;1.20;;;;;;;8.05;78.11;99555.41;4885539;29;20206;-81
2024/03/24 07:46:52;;;;;;;1.15;1.02;;;;;;;7.98;79.31;99541.19;4887179;29;20190;-79
2024/03/24 07:49:20;;;;;;;2.70;1.90;;;;;;;8.10;79.51;99552.06;4890070;29;20215;-78
2024/03/24 07:51:47;;;;;;;1.23;1.05;;;;;;;7.85;78.31;99539.38;4887290;29;20257;-80
2024/03/24 07:54:15;;;;;;;2.05;1.90;;;;;;;8.03;78.57;99540.53;4889144;29;20197;-79
2024/03/24 07:56:43;;;;;;;1.95;1.80;;;;;;;8.28;77.52;99542.16;4874323;29;20186;-79
2024/03/24 07:59:12;;;;;;;1.60;1.48;;;;;;;8.56;76.89;99535.56;4897365;29;20175;-80
2024/03/24 08:01:39;;;;;;;1.00;0.73;;;;;;;8.53;75.43;99536.81;4897492;29;20189;-81
2024/03/24 08:04:08;;;;;;;3.25;1.45;;;;;;;7.92;76.74;99531.28;4896039;29;20252;-79
2024/03/24 08:06:35;;;;;;;1.33;1.08;;;;;;;8.03;75.95;99530.59;4879522;29;20285;-80
2024/03/24 08:09:03;;;;;;;0.93;0.82;;;;;;;8.04;76.32;99529.50;4895765;29;20179;-80
2024/03/24 08:11:33;;;;;;;3.13;1.23;;;;;;;8.05;76.57;99525.78;4899713;29;20277;-80
2024/03/24 08:14:04;;;;;;;1.75;1.55;;;;;;;8.19;77.91;99527.31;4888763;29;20209;-79
2024/03/24 08:16:34;;;;;;;3.00;0.88;;;;;;;8.20;76.77;99520.91;4896044;29;20216;-80
2024/03/24 08:19:05;;;;;;;1.77;1.00;;;;;;;8.07;76.66;99523.72;4900343;29;20193;-81
2024/03/24 08:21:37;;;;;;;1.42;0.68;;;;;;;7.96;75.05;99524.41;4901096;29;20255;-82
2024/03/24 08:24:08;;;;;;;1.00;0.85;;;;;;;7.92;76.02;99511.59;4900404;29;20397;-82
2024/03/24 08:26:40;;;;;;;1.55;1.05;;;;;;;8.07;75.51;99512.94;4882555;29;20202;-81
2024/03/24 08:29:13;;;;;;;1.50;1.17;;;;;;;8.20;75.55;99515.50;4901833;29;20228;-81
2024/03/24 08:31:41;;;;;;;2.08;0.80;;;;;;;8.31;74.99;99510.47;4901806;29;20209;-81
2024/03/24 08:34:10;;;;;;;2.13;0.77;;;;;;;8.57;72.82;99515.59;4894225;29;20222;-81
2024/03/24 08:36:38;;;;;;;2.15;1.63;;;;;;;8.86;71.33;99514.88;4915029;29;20193;-81
2024/03/24 08:39:10;;;;;;;1.63;1.45;;;;;;;8.76;71.18;99514.59;4904903;29;20198;-81
2024/03/24 08:41:39;;;;;;;1.58;0.65;;;;;;;8.53;70.99;99501.75;4894616;29;20205;-81
2024/03/24 08:44:20;;;;;;;1.70;1.05;;;;;;;9.13;71.96;99515.44;4907391;29;20289;-82
2024/03/24 09:15:25;;;;;;;1.10;1.00;;;;;;;8.91;66.40;99495.31;4889965;29;20466;-81
2024/03/24 09:18:10;;;;;;;1.63;1.52;;;;;;;8.50;71.23;99496.00;4894535;29;20420;-81
2024/03/24 09:20:48;;;;;;;1.05;0.65;;;;;;;8.18;77.20;99501.41;4892984;29;20206;-81
2024/03/24 09:23:20;;;;;;;0.90;0.77;;;;;;;7.85;80.07;99496.28;4885569;29;20209;-81
2024/03/24 09:25:54;;;;;;;1.90;0.98;;;;;;;7.63;82.21;99494.19;4875191;29;20192;-81
2024/03/24 09:28:28;;;;;;;1.10;1.00;;;;;;;7.47;83.67;99497.38;4875375;29;20261;-82
2024/03/24 09:31:02;;;;;;;2.08;1.05;;;;;;;7.55;85.63;99489.06;4871991;29;20234;-81
2024/03/24 10:16:16;;;;;;;1.27;0.95;;;;;;;6.62;100.00;99477.06;4851172;29;20620;-69
2024/03/24 10:18:48;;;;;;;1.50;0.68;;;;;;;6.71;100.00;99475.78;4831216;29;20192;-69
2024/03/24 10:21:17;;;;;;;1.10;0.70;;;;;;;6.54;100.00;99480.78;4822744;29;20694;-68
2024/03/24 10:23:44;;;;;;;1.30;0.73;;;;;;;6.75;100.00;99491.28;4818243;29;20295;-70
2024/03/24 10:26:19;;;;;;;1.30;0.95;;;;;;;6.66;100.00;99484.50;4829787;29;20812;-69
2024/03/24 10:28:47;;;;;;;1.02;0.90;;;;;;;6.53;100.00;99479.94;4833390;29;20543;-68
2024/03/24 10:31:17;;;;;;;1.25;0.70;;;;;;;6.28;100.00;99484.38;4810509;29;20218;-70
2024/03/24 10:33:45;;;;;;;2.55;0.80;;;;;;;6.17;100.00;99479.63;4840327;29;20205;-70
2024/03/24 10:36:13;;;;;;;0.90;0.70;;;;;;;6.08;100.00;99479.00;4818882;29;20209;-69
2024/03/24 10:38:41;;;;;;;5.97;1.35;;;;;;;6.10;100.00;99484.16;4816229;29;20185;-69
2024/03/24 10:41:10;;;;;;;1.65;0.95;;;;;;;5.68;100.00;99470.06;4828559;29;20590;-69
2024/03/24 10:43:37;;;;;;;1.50;1.20;;;;;;;5.89;100.00;99469.09;4810193;29;20667;-68
2024/03/24 10:46:07;;;;;;;0.90;0.70;;;;;;;6.07;100.00;99468.47;4820582;29;20193;-70
2024/03/24 10:48:36;;;;;;;2.80;1.00;;;;;;;6.16;100.00;99464.53;4838998;29;20299;-68
2024/03/24 10:51:05;;;;;;;1.40;1.00;;;;;;;6.47;100.00;99453.94;4838983;29;20641;-68
2024/03/24 10:53:33;;;;;;;1.35;1.25;;;;;;;6.71;100.00;99459.66;4809928;29;20569;-70
2024/03/24 10:56:05;;;;;;;1.33;1.20;;;;;;;6.59;100.00;99451.41;4820080;29;20693;-69
2024/03/24 10:58:34;;;;;;;1.65;1.05;;;;;;;6.70;100.00;99453.47;4822882;29;20566;-69
2024/03/24 11:01:03;;;;;;;1.45;0.85;;;;;;;6.65;100.00;99455.13;4835791;29;20221;-69
2024/03/24 11:03:31;;;;;;;1.80;1.30;;;;;;;6.81;100.00;99450.13;4832149;29;20209;-71
2024/03/24 11:06:00;;;;;;;1.92;1.73;;;;;;;7.15;100.00;99446.22;4827281;29;20258;-70
2024/03/24 11:08:27;;;;;;;2.80;1.13;;;;;;;7.28;100.00;99450.72;4818901;29;20208;-69
2024/03/24 11:11:02;;;;;;;1.70;1.13;;;;;;;7.42;100.00;99447.72;4811904;29;20240;-69
2024/03/24 11:13:33;;;;;;;4.50;1.70;;;;;;;7.28;100.00;99446.16;4833566;29;20299;-68
2024/03/24 11:16:03;;;;;;;1.88;1.77;;;;;;;7.15;100.00;99446.22;4848617;29;20299;-69
2024/03/24 11:18:30;;;;;;;2.00;1.17;;;;;;;7.39;100.00;99441.94;4847052;29;20191;-70
2024/03/24 11:21:02;;;;;;;8.55;3.45;;;;;;;7.25;100.00;99446.59;4849110;29;20208;-69
2024/03/24 11:23:34;;;;;;;3.53;0.90;;;;;;;7.03;100.00;99439.88;4847751;29;20191;-69
2024/03/24 11:26:05;;;;;;;9.88;1.33;;;;;;;7.10;100.00;99440.66;4851665;29;20335;-69
2024/03/24 11:28:48;;;;;;;1.60;0.88;;;;;;;7.28;100.00;99443.47;4863240;29;20707;-70
2024/03/24 11:31:31;;;;;;;2.25;0.75;;;;;;;7.13;100.00;99439.41;4842223;29;20219;-69
2024/03/24 11:34:04;;;;;;;1.95;1.10;;;;;;;7.23;100.00;99432.53;4857970;29;20195;-68
2024/03/24 11:36:36;;;;;;;1.10;1.00;;;;;;;7.29;100.00;99430.84;4848581;29;20675;-71
2024/03/24 11:39:06;;;;;;;2.55;1.80;;;;;;;7.14;100.00;99427.59;4840528;29;20603;-69
2024/03/24 11:41:35;;;;;;;3.00;1.27;;;;;;;7.17;100.00;99425.31;4845153;29;20195;-69
2024/03/24 11:44:03;;;;;;;1.90;0.95;;;;;;;7.34;100.00;99431.84;4842209;29;20192;-69
2024/03/24 11:46:32;;;;;;;1.33;1.10;;;;;;;7.34;100.00;99423.78;4841106;29;20332;-69
2024/03/24 11:49:02;;;;;;;1.30;1.10;;;;;;;7.07;100.00;99419.56;4854266;29;20207;-69
2024/03/24 11:51:33;;;;;;;1.75;1.20;;;;;;;7.15;100.00;99419.34;4837876;29;20203;-70
2024/03/24 11:54:01;;;;;;;1.20;0.88;;;;;;;7.03;100.00;99417.53;4859974;29;20222;-69
2024/03/24 11:56:31;;;;;;;3.42;1.40;;;;;;;7.09;100.00;99414.81;4841646;29;20199;-69
2024/03/24 11:58:59;;;;;;;1.00;0.80;;;;;;;7.06;100.00;99409.88;4854212;29;20215;-68
2024/03/24 12:01:28;;;;;;;1.67;0.95;;;;;;;7.22;100.00;99417.41;4840849;29;20502;-70
2024/03/24 12:03:55;;;;;;;1.23;0.80;;;;;;;7.10;100.00;99419.16;4844424;29;20200;-68
2024/03/24 12:06:22;;;;;;;1.40;1.30;;;;;;;7.19;100.00;99419.72;4855276;29;20216;-70
2024/03/24 12:08:51;;;;;;;0.90;0.60;;;;;;;7.37;100.00;99411.72;4853809;29;20205;-70
2024/03/24 12:11:20;;;;;;;2.05;1.55;;;;;;;7.33;100.00;99413.22;4859012;29;20539;-69
2024/03/24 12:13:47;;;;;;;2.00;1.08;;;;;;;7.43;100.00;99409.00;4858579;29;20226;-68
2024/03/24 12:17:06;;;;;;;2.05;1.52;;;;;;;7.50;100.00;99406.28;4850742;29;20199;-69
2024/03/24 12:19:35;;;;;;;0.93;0.63;;;;;;;7.89;100.00;99402.41;4857306;29;20310;-69
2024/03/24 12:22:03;;;;;;;3.00;1.38;;;;;;;7.75;100.00;99403.56;4841207;29;20194;-69
2024/03/24 12:24:31;;;;;;;3.53;1.08;;;;;;;8.15;100.00;99406.75;4857938;29;20233;-69
2024/03/24 12:27:00;;;;;;;1.55;1.13;;;;;;;8.40;100.00;99402.16;4855758;29;20686;-69
2024/03/24 12:29:27;;;;;;;1.20;1.00;;;;;;;8.52;99.25;99404.94;4859008;29;20696;-70
2024/03/24 12:31:55;;;;;;;1.90;1.10;;;;;;;8.12;98.45;99405.31;4839009;29;20951;-69
2024/03/24 12:34:22;;;;;;;1.05;0.75;;;;;;;7.97;99.91;99401.31;4857047;29;20620;-70
2024/03/24 12:36:50;;;;;;;1.45;1.30;;;;;;;8.04;100.00;99392.13;4857778;29;20205;-69
2024/03/24 12:39:17;;;;;;;2.10;1.30;;;;;;;8.31;99.79;99394.59;4857857;29;20272;-70
2024/03/24 12:41:47;;;;;;;2.10;1.35;;;;;;;8.09;98.72;99389.59;4855363;29;20231;-69
2024/03/24 12:44:21;;;;;;;1.60;0.90;;;;;;;8.23;100.00;99384.88;4842166;29;20198;-69
2024/03/24 12:46:49;;;;;;;2.05;1.40;;;;;;;8.52;98.76;99383.38;4848371;29;20251;-70
2024/03/24 12:49:17;;;;;;;1.80;1.00;;;;;;;8.41;97.80;99384.13;4847372;29;20219;-69
2024/03/24 12:51:45;;;;;;;1.08;0.93;;;;;;;8.55;99.34;99377.53;4862480;29;20187;-69
2024/03/24 12:54:13;;;;;;;2.75;1.17;;;;;;;8.84;96.93;99381.31;4861699;29;20198;-71
2024/03/24 12:56:44;;;;;;;3.38;1.75;;;;;;;9.01;95.29;99372.34;4850083;29;20794;-70
2024/03/24 12:59:14;;;;;;;2.00;1.67;;;;;;;9.19;92.91;99374.19;4841967;29;20604;-69
2024/03/24 13:01:44;;;;;;;1.50;1.40;;;;;;;9.49;92.99;99368.72;4843628;29;20210;-69
2024/03/24 13:04:14;;;;;;;4.00;2.75;;;;;;;9.50;91.88;99375.78;4840391;29;20203;-70
2024/03/24 13:06:43;;;;;;;1.15;0.90;;;;;;;9.27;90.99;99368.44;4846506;29;20203;-70
2024/03/24 13:09:12;;;;;;;1.95;1.23;;;;;;;8.68;93.41;99372.78;4836577;29;20275;-69
2024/03/24 13:11:40;;;;;;;1.40;0.70;;;;;;;8.79;94.92;99368.50;4863862;29;20195;-69
2024/03/24 13:14:06;;;;;;;1.80;1.70;;;;;;;9.12;92.67;99370.75;4846992;29;20716;-69
2024/03/24 13:16:41;;;;;;;2.47;1.13;;;;;;;9.20;92.02;99369.63;4851416;29;20748;-68
2024/03/24 13:19:17;;;;;;;1.65;1.55;;;;;;;9.35;92.61;99372.69;4855979;29;20195;-69
2024/03/24 13:21:48;;;;;;;1.17;0.93;;;;;;;9.09;92.24;99363.13;4846570;29;20285;-69
2024/03/24 13:24:20;;;;;;;1.15;0.90;;;;;;;9.05;93.34;99370.81;4861245;29;20191;-71
2024/03/24 13:26:50;;;;;;;1.90;1.05;;;;;;;8.62;94.94;99364.78;4846564;29;20704;-69
2024/03/24 13:29:17;;;;;;;2.85;0.90;;;;;;;8.89;94.73;99358.00;4836904;29;20220;-70
2024/03/24 13:31:47;;;;;;;1.88;0.93;;;;;;;8.55;95.08;99351.38;4857288;29;20225;-68
2024/03/24 13:34:14;;;;;;;1.50;0.95;;;;;;;8.84;94.26;99349.75;4841912;29;20210;-71
2024/03/24 13:36:48;;;;;;;1.50;0.77;;;;;;;8.77;94.74;99354.41;4843940;29;20199;-69
2024/03/24 13:39:26;;;;;;;1.13;0.93;;;;;;;9.09;92.68;99352.31;4862713;29;20244;-70
2024/03/24 13:42:05;;;;;;;4.28;1.27;;;;;;;9.25;91.85;99348.13;4842438;29;20199;-69
2024/03/24 13:44:47;;;;;;;1.00;0.90;;;;;;;9.19;92.29;99349.06;4843114;29;20210;-69
2024/03/24 13:47:30;;;;;;;0.93;0.80;;;;;;;9.12;91.68;99347.28;4855892;29;20188;-69
2024/03/24 13:50:00;;;;;;;1.38;0.90;;;;;;;8.91;91.46;99347.78;4847151;29;20216;-69
2024/03/24 13:52:33;;;;;;;1.55;1.45;;;;;;;8.73;92.92;99347.84;4839043;29;20219;-68
2024/03/24 13:55:01;;;;;;;1.75;1.45;;;;;;;8.71;93.67;99344.56;4842706;29;20205;-68
2024/03/24 13:57:31;;;;;;;2.10;1.15;;;;;;;8.43;95.20;99347.78;4848281;29;20191;-68
2024/03/24 13:59:57;;;;;;;4.45;1.08;;;;;;;8.60;95.14;99348.00;4861092;29;20219;-69
2024/03/24 14:02:27;;;;;;;1.23;1.00;;;;;;;8.36;95.22;99346.22;4861828;29;20558;-69
2024/03/24 14:04:55;;;;;;;1.42;1.15;;;;;;;8.33;96.42;99338.63;4870995;29;20191;-68
2024/03/24 14:07:23;;;;;;;2.40;1.40;;;;;;;8.60;95.96;99340.75;4842246;29;20196;-69
2024/03/24 14:09:52;;;;;;;1.45;1.30;;;;;;;8.58;93.63;99336.63;4859072;29;20310;-70
2024/03/24 14:12:28;;;;;;;1.45;1.05;;;;;;;8.57;94.24;99334.97;4844531;29;20200;-72
2024/03/24 14:15:08;;;;;;;1.48;1.20;;;;;;;8.81;93.56;99336.72;4844159;29;20199;-70
2024/03/24 14:17:48;;;;;;;1.00;0.88;;;;;;;9.10;94.46;99321.59;4861738;29;20210;-69
2024/03/24 14:20:18;;;;;;;1.92;0.93;;;;;;;9.10;92.79;99318.91;4864589;29;20219;-70
2024/03/24 14:22:53;;;;;;;1.10;0.93;;;;;;;9.15;92.78;99322.53;4835703;29;20249;-69
2024/03/24 14:25:24;;;;;;;1.33;0.90;;;;;;;9.54;90.06;99317.53;4850202;29;20206;-69
2024/03/24 14:27:53;;;;;;;1.10;0.82;;;;;;;9.69;90.10;99317.91;4839916;29;20245;-70
2024/03/24 14:30:21;;;;;;;1.10;0.90;;;;;;;9.78;86.14;99319.19;4856155;29;20212;-68
2024/03/24 14:32:49;;;;;;;0.90;0.70;;;;;;;9.88;87.15;99322.13;4853095;29;20220;-70
2024/03/24 14:35:20;;;;;;;1.73;1.20;;;;;;;9.88;85.76;99314.03;4840962;29;20484;-67